sensor_id;sensor_type;location;lat;lon;timestamp;P1;durP1;ratioP1;P2;durP2;ratioP2
20431;SDS011;10375;49.136;10.366;2022-10-31T00:01:14;12.85;;;5.10;;
20431;SDS011;10375;49.136;10.366;2022-10-31T00:03:47;8.65;;;4.80;;
20431;SDS011;10375;49.136;10.366;2022-10-31T00:06:14;7.53;;;4.30;;
20431;SDS011;10375;49.136;10.366;2022-10-31T00:08:45;11.82;;;5.95;;
20431;SDS011;10375;49.136;10.366;2022-10-31T00:11:32;11.45;;;5.00;;
20431;SDS011;10375;49.136;10.366;2022-10-31T00:14:00;17.15;;;6.30;;
20431;SDS011;10375;49.136;10.366;2022-10-31T00:16:27;30.50;;;6.97;;
20431;SDS011;10375;49.136;10.366;2022-10-31T00:18:56;24.48;;;6.97;;
20431;SDS011;10375;49.136;10.366;2022-10-31T00:21:26;23.63;;;5.70;;
20431;SDS011;10375;49.136;10.366;2022-10-31T00:23:53;42.70;;;6.80;;
20431;SDS011;10375;49.136;10.366;2022-10-31T00:26:20;21.35;;;6.53;;
20431;SDS011;10375;49.136;10.366;2022-10-31T00:28:47;10.35;;;5.03;;
20431;SDS011;10375;49.136;10.366;2022-10-31T00:31:15;8.18;;;4.63;;
20431;SDS011;10375;49.136;10.366;2022-10-31T00:33:41;11.02;;;4.65;;
20431;SDS011;10375;49.136;10.366;2022-10-31T00:36:11;9.20;;;4.30;;
20431;SDS011;10375;49.136;10.366;2022-10-31T00:38:43;8.95;;;4.03;;
20431;SDS011;10375;49.136;10.366;2022-10-31T00:41:11;4.47;;;3.60;;
20431;SDS011;10375;49.136;10.366;2022-10-31T00:43:39;8.63;;;4.63;;
20431;SDS011;10375;49.136;10.366;2022-10-31T00:46:06;14.35;;;4.80;;
20431;SDS011;10375;49.136;10.366;2022-10-31T00:48:33;9.82;;;4.30;;
20431;SDS011;10375;49.136;10.366;2022-10-31T00:51:00;8.40;;;4.10;;
20431;SDS011;10375;49.136;10.366;2022-10-31T00:53:27;7.10;;;4.25;;
20431;SDS011;10375;49.136;10.366;2022-10-31T00:55:54;13.70;;;4.72;;
20431;SDS011;10375;49.136;10.366;2022-10-31T00:58:21;9.55;;;3.95;;
20431;SDS011;10375;49.136;10.366;2022-10-31T01:00:48;9.18;;;3.88;;
20431;SDS011;10375;49.136;10.366;2022-10-31T01:03:22;6.75;;;3.83;;
20431;SDS011;10375;49.136;10.366;2022-10-31T01:06:24;14.77;;;4.15;;
20431;SDS011;10375;49.136;10.366;2022-10-31T01:08:44;6.32;;;3.28;;
20431;SDS011;10375;49.136;10.366;2022-10-31T01:11:17;6.68;;;3.83;;
20431;SDS011;10375;49.136;10.366;2022-10-31T01:13:46;5.30;;;3.40;;
20431;SDS011;10375;49.136;10.366;2022-10-31T01:16:16;7.93;;;3.42;;
20431;SDS011;10375;49.136;10.366;2022-10-31T01:18:45;3.78;;;3.30;;
20431;SDS011;10375;49.136;10.366;2022-10-31T01:21:13;4.35;;;3.47;;
20431;SDS011;10375;49.136;10.366;2022-10-31T01:23:42;3.83;;;3.35;;
20431;SDS011;10375;49.136;10.366;2022-10-31T01:26:14;8.02;;;4.10;;
20431;SDS011;10375;49.136;10.366;2022-10-31T01:28:47;5.30;;;3.63;;
20431;SDS011;10375;49.136;10.366;2022-10-31T01:31:16;9.57;;;4.40;;
20431;SDS011;10375;49.136;10.366;2022-10-31T01:33:45;8.35;;;5.38;;
20431;SDS011;10375;49.136;10.366;2022-10-31T01:36:19;19.90;;;5.10;;
20431;SDS011;10375;49.136;10.366;2022-10-31T01:38:52;13.38;;;4.50;;
20431;SDS011;10375;49.136;10.366;2022-10-31T01:41:23;19.55;;;6.30;;
20431;SDS011;10375;49.136;10.366;2022-10-31T01:43:54;14.52;;;4.68;;
20431;SDS011;10375;49.136;10.366;2022-10-31T01:49:24;10.00;;;4.45;;
20431;SDS011;10375;49.136;10.366;2022-10-31T01:55:06;5.68;;;3.88;;
20431;SDS011;10375;49.136;10.366;2022-10-31T01:57:37;5.15;;;3.75;;
20431;SDS011;10375;49.136;10.366;2022-10-31T02:00:08;3.88;;;3.40;;
20431;SDS011;10375;49.136;10.366;2022-10-31T02:02:37;4.10;;;3.47;;
20431;SDS011;10375;49.136;10.366;2022-10-31T02:05:06;9.80;;;3.95;;
20431;SDS011;10375;49.136;10.366;2022-10-31T02:07:38;10.18;;;3.60;;
20431;SDS011;10375;49.136;10.366;2022-10-31T02:10:10;5.95;;;3.70;;
20431;SDS011;10375;49.136;10.366;2022-10-31T02:12:36;6.53;;;3.65;;
20431;SDS011;10375;49.136;10.366;2022-10-31T02:15:05;4.82;;;3.40;;
20431;SDS011;10375;49.136;10.366;2022-10-31T02:17:32;11.48;;;4.20;;
20431;SDS011;10375;49.136;10.366;2022-10-31T02:20:05;9.38;;;3.78;;
20431;SDS011;10375;49.136;10.366;2022-10-31T02:25:51;14.10;;;4.40;;
20431;SDS011;10375;49.136;10.366;2022-10-31T02:33:52;14.93;;;4.55;;
20431;SDS011;10375;49.136;10.366;2022-10-31T02:36:40;14.60;;;4.33;;
20431;SDS011;10375;49.136;10.366;2022-10-31T02:47:14;6.70;;;4.25;;
20431;SDS011;10375;49.136;10.366;2022-10-31T02:49:50;12.48;;;4.70;;
20431;SDS011;10375;49.136;10.366;2022-10-31T02:52:27;7.65;;;4.13;;
20431;SDS011;10375;49.136;10.366;2022-10-31T02:54:55;6.53;;;4.40;;
20431;SDS011;10375;49.136;10.366;2022-10-31T02:57:24;11.82;;;4.40;;
20431;SDS011;10375;49.136;10.366;2022-10-31T02:59:56;11.55;;;5.32;;
20431;SDS011;10375;49.136;10.366;2022-10-31T03:02:33;15.13;;;5.28;;
20431;SDS011;10375;49.136;10.366;2022-10-31T03:08:30;9.25;;;4.20;;
20431;SDS011;10375;49.136;10.366;2022-10-31T03:11:00;8.85;;;4.15;;
20431;SDS011;10375;49.136;10.366;2022-10-31T03:16:15;9.88;;;4.43;;
20431;SDS011;10375;49.136;10.366;2022-10-31T03:21:30;6.67;;;3.73;;
20431;SDS011;10375;49.136;10.366;2022-10-31T03:24:03;8.23;;;3.90;;
20431;SDS011;10375;49.136;10.366;2022-10-31T03:26:32;7.95;;;4.20;;
20431;SDS011;10375;49.136;10.366;2022-10-31T03:29:04;15.20;;;3.83;;
20431;SDS011;10375;49.136;10.366;2022-10-31T03:31:35;13.40;;;4.10;;
20431;SDS011;10375;49.136;10.366;2022-10-31T03:34:24;8.32;;;4.00;;
20431;SDS011;10375;49.136;10.366;2022-10-31T03:36:52;5.33;;;3.50;;
20431;SDS011;10375;49.136;10.366;2022-10-31T03:39:22;3.90;;;3.13;;
20431;SDS011;10375;49.136;10.366;2022-10-31T03:41:54;6.38;;;3.70;;
20431;SDS011;10375;49.136;10.366;2022-10-31T03:44:26;8.13;;;4.75;;
20431;SDS011;10375;49.136;10.366;2022-10-31T03:46:56;4.90;;;3.10;;
20431;SDS011;10375;49.136;10.366;2022-10-31T03:49:23;8.87;;;3.43;;
20431;SDS011;10375;49.136;10.366;2022-10-31T03:54:37;7.10;;;3.50;;
20431;SDS011;10375;49.136;10.366;2022-10-31T03:59:47;8.77;;;4.17;;
20431;SDS011;10375;49.136;10.366;2022-10-31T04:02:22;7.20;;;3.60;;
20431;SDS011;10375;49.136;10.366;2022-10-31T04:04:55;7.77;;;3.93;;
20431;SDS011;10375;49.136;10.366;2022-10-31T04:07:23;14.02;;;4.18;;
20431;SDS011;10375;49.136;10.366;2022-10-31T04:09:56;9.87;;;3.90;;
20431;SDS011;10375;49.136;10.366;2022-10-31T04:12:25;6.47;;;3.90;;
20431;SDS011;10375;49.136;10.366;2022-10-31T04:14:53;5.22;;;4.00;;
20431;SDS011;10375;49.136;10.366;2022-10-31T04:17:22;5.73;;;4.20;;
20431;SDS011;10375;49.136;10.366;2022-10-31T04:19:53;5.78;;;3.60;;
20431;SDS011;10375;49.136;10.366;2022-10-31T04:22:20;9.13;;;3.80;;
20431;SDS011;10375;49.136;10.366;2022-10-31T04:24:47;4.20;;;3.77;;
20431;SDS011;10375;49.136;10.366;2022-10-31T04:27:14;7.60;;;3.27;;
20431;SDS011;10375;49.136;10.366;2022-10-31T04:29:41;5.10;;;3.73;;
20431;SDS011;10375;49.136;10.366;2022-10-31T04:32:13;9.05;;;3.70;;
20431;SDS011;10375;49.136;10.366;2022-10-31T04:34:40;9.45;;;3.95;;
20431;SDS011;10375;49.136;10.366;2022-10-31T04:37:07;6.50;;;3.73;;
20431;SDS011;10375;49.136;10.366;2022-10-31T04:39:34;11.53;;;4.43;;
20431;SDS011;10375;49.136;10.366;2022-10-31T04:42:01;7.53;;;4.00;;
20431;SDS011;10375;49.136;10.366;2022-10-31T04:44:30;6.60;;;3.87;;
20431;SDS011;10375;49.136;10.366;2022-10-31T04:46:57;9.57;;;3.80;;
20431;SDS011;10375;49.136;10.366;2022-10-31T04:49:24;6.18;;;3.95;;
20431;SDS011;10375;49.136;10.366;2022-10-31T04:51:51;5.13;;;3.70;;
20431;SDS011;10375;49.136;10.366;2022-10-31T04:54:18;7.27;;;4.10;;
20431;SDS011;10375;49.136;10.366;2022-10-31T04:56:45;9.67;;;3.77;;
20431;SDS011;10375;49.136;10.366;2022-10-31T04:59:12;7.03;;;3.53;;
20431;SDS011;10375;49.136;10.366;2022-10-31T05:01:39;6.97;;;3.33;;
20431;SDS011;10375;49.136;10.366;2022-10-31T05:04:06;8.40;;;3.27;;
20431;SDS011;10375;49.136;10.366;2022-10-31T05:06:33;4.43;;;3.73;;
20431;SDS011;10375;49.136;10.366;2022-10-31T05:09:00;7.07;;;3.67;;
20431;SDS011;10375;49.136;10.366;2022-10-31T05:11:27;6.13;;;3.90;;
20431;SDS011;10375;49.136;10.366;2022-10-31T05:13:54;5.37;;;3.20;;
20431;SDS011;10375;49.136;10.366;2022-10-31T05:16:21;5.20;;;3.23;;
20431;SDS011;10375;49.136;10.366;2022-10-31T05:18:48;8.93;;;3.33;;
20431;SDS011;10375;49.136;10.366;2022-10-31T05:21:15;6.90;;;3.60;;
20431;SDS011;10375;49.136;10.366;2022-10-31T05:23:42;8.97;;;3.23;;
20431;SDS011;10375;49.136;10.366;2022-10-31T05:26:13;8.00;;;3.43;;
20431;SDS011;10375;49.136;10.366;2022-10-31T05:28:41;6.73;;;3.73;;
20431;SDS011;10375;49.136;10.366;2022-10-31T05:31:07;32.90;;;7.30;;
20431;SDS011;10375;49.136;10.366;2022-10-31T05:33:34;62.60;;;9.63;;
20431;SDS011;10375;49.136;10.366;2022-10-31T05:36:01;41.47;;;8.37;;
20431;SDS011;10375;49.136;10.366;2022-10-31T05:38:29;18.73;;;7.27;;
20431;SDS011;10375;49.136;10.366;2022-10-31T05:40:56;9.77;;;5.37;;
20431;SDS011;10375;49.136;10.366;2022-10-31T05:43:29;19.33;;;6.80;;
20431;SDS011;10375;49.136;10.366;2022-10-31T05:45:56;19.07;;;5.87;;
20431;SDS011;10375;49.136;10.366;2022-10-31T05:48:23;19.13;;;6.03;;
20431;SDS011;10375;49.136;10.366;2022-10-31T05:50:50;18.87;;;5.27;;
20431;SDS011;10375;49.136;10.366;2022-10-31T05:53:18;16.33;;;4.90;;
20431;SDS011;10375;49.136;10.366;2022-10-31T05:55:45;15.20;;;5.53;;
20431;SDS011;10375;49.136;10.366;2022-10-31T05:58:12;8.57;;;4.53;;
20431;SDS011;10375;49.136;10.366;2022-10-31T06:00:39;10.33;;;4.13;;
20431;SDS011;10375;49.136;10.366;2022-10-31T06:03:07;7.70;;;3.63;;
20431;SDS011;10375;49.136;10.366;2022-10-31T06:05:40;6.03;;;3.80;;
20431;SDS011;10375;49.136;10.366;2022-10-31T06:08:07;10.23;;;3.40;;
20431;SDS011;10375;49.136;10.366;2022-10-31T06:10:34;5.53;;;3.00;;
20431;SDS011;10375;49.136;10.366;2022-10-31T06:13:01;9.97;;;4.93;;
20431;SDS011;10375;49.136;10.366;2022-10-31T06:15:28;5.77;;;2.83;;
20431;SDS011;10375;49.136;10.366;2022-10-31T06:17:59;9.30;;;3.60;;
20431;SDS011;10375;49.136;10.366;2022-10-31T06:20:28;5.20;;;3.77;;
20431;SDS011;10375;49.136;10.366;2022-10-31T06:22:55;17.00;;;5.90;;
20431;SDS011;10375;49.136;10.366;2022-10-31T06:25:22;10.60;;;4.33;;
20431;SDS011;10375;49.136;10.366;2022-10-31T06:27:49;8.00;;;3.87;;
20431;SDS011;10375;49.136;10.366;2022-10-31T06:30:16;6.73;;;3.83;;
20431;SDS011;10375;49.136;10.366;2022-10-31T06:32:43;17.67;;;4.07;;
20431;SDS011;10375;49.136;10.366;2022-10-31T06:35:10;7.33;;;3.57;;
20431;SDS011;10375;49.136;10.366;2022-10-31T06:37:38;8.17;;;3.50;;
20431;SDS011;10375;49.136;10.366;2022-10-31T06:40:05;9.80;;;3.25;;
20431;SDS011;10375;49.136;10.366;2022-10-31T06:42:32;7.43;;;4.03;;
20431;SDS011;10375;49.136;10.366;2022-10-31T06:44:59;6.30;;;3.47;;
20431;SDS011;10375;49.136;10.366;2022-10-31T06:47:26;6.00;;;3.83;;
20431;SDS011;10375;49.136;10.366;2022-10-31T06:49:53;10.33;;;3.77;;
20431;SDS011;10375;49.136;10.366;2022-10-31T06:52:20;3.73;;;3.40;;
20431;SDS011;10375;49.136;10.366;2022-10-31T06:54:49;5.47;;;4.17;;
20431;SDS011;10375;49.136;10.366;2022-10-31T06:57:16;10.33;;;4.80;;
20431;SDS011;10375;49.136;10.366;2022-10-31T06:59:43;8.13;;;5.63;;
20431;SDS011;10375;49.136;10.366;2022-10-31T07:02:11;12.25;;;3.70;;
20431;SDS011;10375;49.136;10.366;2022-10-31T07:04:38;13.95;;;4.22;;
20431;SDS011;10375;49.136;10.366;2022-10-31T07:07:08;17.93;;;4.37;;
20431;SDS011;10375;49.136;10.366;2022-10-31T07:09:35;8.50;;;4.10;;
20431;SDS011;10375;49.136;10.366;2022-10-31T07:12:02;8.47;;;4.00;;
20431;SDS011;10375;49.136;10.366;2022-10-31T07:14:29;8.77;;;3.60;;
20431;SDS011;10375;49.136;10.366;2022-10-31T07:16:56;4.03;;;3.60;;
20431;SDS011;10375;49.136;10.366;2022-10-31T07:19:23;6.60;;;3.83;;
20431;SDS011;10375;49.136;10.366;2022-10-31T07:21:50;5.38;;;3.92;;
20431;SDS011;10375;49.136;10.366;2022-10-31T07:24:17;11.48;;;3.97;;
20431;SDS011;10375;49.136;10.366;2022-10-31T07:26:45;20.80;;;4.67;;
20431;SDS011;10375;49.136;10.366;2022-10-31T07:29:13;5.40;;;4.15;;
20431;SDS011;10375;49.136;10.366;2022-10-31T07:31:42;11.75;;;5.32;;
20431;SDS011;10375;49.136;10.366;2022-10-31T07:34:10;11.82;;;5.55;;
20431;SDS011;10375;49.136;10.366;2022-10-31T07:36:37;11.38;;;6.03;;
20431;SDS011;10375;49.136;10.366;2022-10-31T07:39:04;11.18;;;6.50;;
20431;SDS011;10375;49.136;10.366;2022-10-31T07:41:31;12.90;;;6.43;;
20431;SDS011;10375;49.136;10.366;2022-10-31T07:43:58;8.90;;;5.25;;
20431;SDS011;10375;49.136;10.366;2022-10-31T07:46:25;12.43;;;6.15;;
20431;SDS011;10375;49.136;10.366;2022-10-31T07:48:52;14.43;;;6.80;;
20431;SDS011;10375;49.136;10.366;2022-10-31T07:51:19;11.43;;;5.28;;
20431;SDS011;10375;49.136;10.366;2022-10-31T07:53:46;7.45;;;4.82;;
20431;SDS011;10375;49.136;10.366;2022-10-31T07:56:13;10.20;;;4.97;;
20431;SDS011;10375;49.136;10.366;2022-10-31T07:58:40;6.70;;;4.55;;
20431;SDS011;10375;49.136;10.366;2022-10-31T08:01:07;12.65;;;6.70;;
20431;SDS011;10375;49.136;10.366;2022-10-31T08:03:34;7.85;;;5.13;;
20431;SDS011;10375;49.136;10.366;2022-10-31T08:06:01;9.73;;;5.47;;
20431;SDS011;10375;49.136;10.366;2022-10-31T08:08:29;5.88;;;4.60;;
20431;SDS011;10375;49.136;10.366;2022-10-31T08:11:01;7.78;;;4.88;;
20431;SDS011;10375;49.136;10.366;2022-10-31T08:13:28;9.77;;;4.20;;
20431;SDS011;10375;49.136;10.366;2022-10-31T08:15:56;9.65;;;5.38;;
20431;SDS011;10375;49.136;10.366;2022-10-31T08:18:29;7.53;;;4.68;;
20431;SDS011;10375;49.136;10.366;2022-10-31T08:20:56;7.57;;;4.53;;
20431;SDS011;10375;49.136;10.366;2022-10-31T08:23:23;7.40;;;4.20;;
20431;SDS011;10375;49.136;10.366;2022-10-31T08:25:51;6.93;;;4.03;;
20431;SDS011;10375;49.136;10.366;2022-10-31T08:28:18;6.22;;;3.78;;
20431;SDS011;10375;49.136;10.366;2022-10-31T08:30:45;18.85;;;6.93;;
20431;SDS011;10375;49.136;10.366;2022-10-31T08:33:14;20.38;;;10.45;;
20431;SDS011;10375;49.136;10.366;2022-10-31T08:35:43;14.02;;;10.38;;
20431;SDS011;10375;49.136;10.366;2022-10-31T08:38:11;22.25;;;14.57;;
20431;SDS011;10375;49.136;10.366;2022-10-31T08:40:39;7.95;;;5.45;;
20431;SDS011;10375;49.136;10.366;2022-10-31T08:43:08;24.20;;;5.93;;
20431;SDS011;10375;49.136;10.366;2022-10-31T08:45:41;16.13;;;5.22;;
20431;SDS011;10375;49.136;10.366;2022-10-31T08:48:10;7.40;;;5.65;;
20431;SDS011;10375;49.136;10.366;2022-10-31T08:50:38;6.65;;;4.85;;
20431;SDS011;10375;49.136;10.366;2022-10-31T08:53:07;9.40;;;5.60;;
20431;SDS011;10375;49.136;10.366;2022-10-31T08:55:37;10.85;;;6.25;;
20431;SDS011;10375;49.136;10.366;2022-10-31T08:58:06;13.13;;;7.35;;
20431;SDS011;10375;49.136;10.366;2022-10-31T09:00:36;15.52;;;9.45;;
20431;SDS011;10375;49.136;10.366;2022-10-31T09:03:04;14.45;;;7.45;;
20431;SDS011;10375;49.136;10.366;2022-10-31T09:05:36;13.82;;;7.00;;
20431;SDS011;10375;49.136;10.366;2022-10-31T09:08:04;15.45;;;7.65;;
20431;SDS011;10375;49.136;10.366;2022-10-31T09:10:38;10.90;;;7.65;;
20431;SDS011;10375;49.136;10.366;2022-10-31T09:13:06;21.58;;;12.93;;
20431;SDS011;10375;49.136;10.366;2022-10-31T09:15:38;21.42;;;15.30;;
20431;SDS011;10375;49.136;10.366;2022-10-31T09:18:07;19.90;;;9.77;;
20431;SDS011;10375;49.136;10.366;2022-10-31T09:20:35;23.63;;;11.32;;
20431;SDS011;10375;49.136;10.366;2022-10-31T09:23:05;18.80;;;9.80;;
20431;SDS011;10375;49.136;10.366;2022-10-31T09:25:37;13.52;;;7.10;;
20431;SDS011;10375;49.136;10.366;2022-10-31T09:28:05;11.25;;;7.60;;
20431;SDS011;10375;49.136;10.366;2022-10-31T09:30:35;13.93;;;8.73;;
20431;SDS011;10375;49.136;10.366;2022-10-31T09:33:04;11.77;;;8.40;;
20431;SDS011;10375;49.136;10.366;2022-10-31T09:35:38;16.02;;;9.48;;
20431;SDS011;10375;49.136;10.366;2022-10-31T09:38:08;12.65;;;9.27;;
20431;SDS011;10375;49.136;10.366;2022-10-31T09:40:37;22.55;;;11.23;;
20431;SDS011;10375;49.136;10.366;2022-10-31T09:43:29;17.40;;;9.60;;
20431;SDS011;10375;49.136;10.366;2022-10-31T09:48:37;17.98;;;11.50;;
20431;SDS011;10375;49.136;10.366;2022-10-31T09:51:32;16.58;;;10.10;;
20431;SDS011;10375;49.136;10.366;2022-10-31T09:54:19;21.77;;;11.02;;
20431;SDS011;10375;49.136;10.366;2022-10-31T09:57:05;19.05;;;10.52;;
20431;SDS011;10375;49.136;10.366;2022-10-31T09:59:40;20.23;;;11.10;;
20431;SDS011;10375;49.136;10.366;2022-10-31T10:04:52;18.15;;;10.07;;
20431;SDS011;10375;49.136;10.366;2022-10-31T10:16:14;20.67;;;8.50;;
20431;SDS011;10375;49.136;10.366;2022-10-31T10:19:07;17.50;;;8.68;;
20431;SDS011;10375;49.136;10.366;2022-10-31T10:32:29;12.63;;;7.30;;
20431;SDS011;10375;49.136;10.366;2022-10-31T10:35:17;12.60;;;6.68;;
20431;SDS011;10375;49.136;10.366;2022-10-31T10:37:55;16.20;;;8.25;;
20431;SDS011;10375;49.136;10.366;2022-10-31T10:40:27;22.63;;;7.85;;
20431;SDS011;10375;49.136;10.366;2022-10-31T10:49:07;16.42;;;7.15;;
20431;SDS011;10375;49.136;10.366;2022-10-31T10:54:56;19.52;;;7.82;;
20431;SDS011;10375;49.136;10.366;2022-10-31T11:00:18;17.27;;;7.25;;
20431;SDS011;10375;49.136;10.366;2022-10-31T11:02:47;13.75;;;6.60;;
20431;SDS011;10375;49.136;10.366;2022-10-31T11:05:22;18.77;;;7.50;;
20431;SDS011;10375;49.136;10.366;2022-10-31T11:07:49;26.13;;;7.60;;
20431;SDS011;10375;49.136;10.366;2022-10-31T11:10:17;15.25;;;6.90;;
20431;SDS011;10375;49.136;10.366;2022-10-31T11:12:46;13.23;;;6.93;;
20431;SDS011;10375;49.136;10.366;2022-10-31T11:15:27;17.25;;;7.38;;
20431;SDS011;10375;49.136;10.366;2022-10-31T11:17:57;12.50;;;6.90;;
20431;SDS011;10375;49.136;10.366;2022-10-31T11:23:15;16.50;;;6.53;;
20431;SDS011;10375;49.136;10.366;2022-10-31T11:25:47;15.73;;;6.75;;
20431;SDS011;10375;49.136;10.366;2022-10-31T11:28:20;15.48;;;6.80;;
20431;SDS011;10375;49.136;10.366;2022-10-31T11:30:57;22.08;;;7.13;;
20431;SDS011;10375;49.136;10.366;2022-10-31T11:33:28;14.63;;;7.03;;
20431;SDS011;10375;49.136;10.366;2022-10-31T11:36:10;12.43;;;6.35;;
20431;SDS011;10375;49.136;10.366;2022-10-31T11:38:44;14.73;;;6.88;;
20431;SDS011;10375;49.136;10.366;2022-10-31T11:44:00;41.25;;;8.68;;
20431;SDS011;10375;49.136;10.366;2022-10-31T11:47:03;12.80;;;7.05;;
20431;SDS011;10375;49.136;10.366;2022-10-31T11:49:35;11.23;;;6.25;;
20431;SDS011;10375;49.136;10.366;2022-10-31T11:52:08;10.63;;;6.38;;
20431;SDS011;10375;49.136;10.366;2022-10-31T11:57:32;18.13;;;6.70;;
20431;SDS011;10375;49.136;10.366;2022-10-31T12:00:31;15.95;;;6.72;;
20431;SDS011;10375;49.136;10.366;2022-10-31T12:05:38;14.82;;;7.28;;
20431;SDS011;10375;49.136;10.366;2022-10-31T12:08:09;15.63;;;6.72;;
20431;SDS011;10375;49.136;10.366;2022-10-31T12:16:06;15.52;;;6.93;;
20431;SDS011;10375;49.136;10.366;2022-10-31T12:32:57;13.18;;;6.53;;
20431;SDS011;10375;49.136;10.366;2022-10-31T12:38:15;17.23;;;6.65;;
20431;SDS011;10375;49.136;10.366;2022-10-31T12:46:32;14.55;;;6.78;;
20431;SDS011;10375;49.136;10.366;2022-10-31T13:03:02;15.75;;;6.72;;
20431;SDS011;10375;49.136;10.366;2022-10-31T13:05:54;17.67;;;7.60;;
20431;SDS011;10375;49.136;10.366;2022-10-31T13:08:59;14.35;;;6.80;;
20431;SDS011;10375;49.136;10.366;2022-10-31T13:16:34;20.05;;;6.97;;
20431;SDS011;10375;49.136;10.366;2022-10-31T13:19:15;31.20;;;8.90;;
20431;SDS011;10375;49.136;10.366;2022-10-31T13:21:57;14.77;;;6.50;;
20431;SDS011;10375;49.136;10.366;2022-10-31T13:24:38;13.57;;;6.68;;
20431;SDS011;10375;49.136;10.366;2022-10-31T13:27:14;21.58;;;7.15;;
20431;SDS011;10375;49.136;10.366;2022-10-31T13:30:06;12.43;;;7.43;;
20431;SDS011;10375;49.136;10.366;2022-10-31T13:32:46;13.48;;;7.47;;
20431;SDS011;10375;49.136;10.366;2022-10-31T13:35:26;59.33;;;9.75;;
20431;SDS011;10375;49.136;10.366;2022-10-31T13:38:02;25.20;;;8.05;;
20431;SDS011;10375;49.136;10.366;2022-10-31T13:46:23;23.42;;;7.25;;
20431;SDS011;10375;49.136;10.366;2022-10-31T13:51:52;11.43;;;6.95;;
20431;SDS011;10375;49.136;10.366;2022-10-31T13:54:23;16.30;;;6.90;;
20431;SDS011;10375;49.136;10.366;2022-10-31T13:57:00;104.22;;;12.82;;
20431;SDS011;10375;49.136;10.366;2022-10-31T13:59:28;148.45;;;17.88;;
20431;SDS011;10375;49.136;10.366;2022-10-31T14:02:12;15.48;;;7.55;;
20431;SDS011;10375;49.136;10.366;2022-10-31T14:04:46;22.15;;;7.45;;
20431;SDS011;10375;49.136;10.366;2022-10-31T14:07:20;28.50;;;8.57;;
20431;SDS011;10375;49.136;10.366;2022-10-31T14:09:52;52.85;;;10.15;;
20431;SDS011;10375;49.136;10.366;2022-10-31T14:12:43;10.95;;;7.40;;
20431;SDS011;10375;49.136;10.366;2022-10-31T14:18:25;34.85;;;9.70;;
20431;SDS011;10375;49.136;10.366;2022-10-31T14:20:44;12.60;;;7.25;;
20431;SDS011;10375;49.136;10.366;2022-10-31T14:23:13;14.68;;;7.90;;
20431;SDS011;10375;49.136;10.366;2022-10-31T14:28:46;14.20;;;7.55;;
20431;SDS011;10375;49.136;10.366;2022-10-31T14:34:20;18.65;;;7.95;;
20431;SDS011;10375;49.136;10.366;2022-10-31T14:46:06;14.13;;;7.63;;
20431;SDS011;10375;49.136;10.366;2022-10-31T14:51:16;41.13;;;10.07;;
20431;SDS011;10375;49.136;10.366;2022-10-31T14:53:49;358.60;;;32.75;;
20431;SDS011;10375;49.136;10.366;2022-10-31T14:56:27;37.55;;;9.93;;
20431;SDS011;10375;49.136;10.366;2022-10-31T14:59:02;12.85;;;7.88;;
20431;SDS011;10375;49.136;10.366;2022-10-31T15:01:34;29.15;;;8.63;;
20431;SDS011;10375;49.136;10.366;2022-10-31T15:04:23;20.98;;;8.43;;
20431;SDS011;10375;49.136;10.366;2022-10-31T15:07:16;16.23;;;8.27;;
20431;SDS011;10375;49.136;10.366;2022-10-31T15:12:49;15.75;;;9.23;;
20431;SDS011;10375;49.136;10.366;2022-10-31T15:15:19;17.20;;;8.98;;
20431;SDS011;10375;49.136;10.366;2022-10-31T15:17:49;16.25;;;9.32;;
20431;SDS011;10375;49.136;10.366;2022-10-31T15:20:26;13.85;;;8.90;;
20431;SDS011;10375;49.136;10.366;2022-10-31T15:22:58;15.82;;;9.82;;
20431;SDS011;10375;49.136;10.366;2022-10-31T15:25:28;15.20;;;10.02;;
20431;SDS011;10375;49.136;10.366;2022-10-31T15:27:59;20.13;;;10.20;;
20431;SDS011;10375;49.136;10.366;2022-10-31T15:30:28;68.15;;;13.27;;
20431;SDS011;10375;49.136;10.366;2022-10-31T15:32:55;127.28;;;19.75;;
20431;SDS011;10375;49.136;10.366;2022-10-31T15:35:25;90.82;;;14.63;;
20431;SDS011;10375;49.136;10.366;2022-10-31T15:37:55;26.90;;;11.73;;
20431;SDS011;10375;49.136;10.366;2022-10-31T15:40:25;20.38;;;12.15;;
20431;SDS011;10375;49.136;10.366;2022-10-31T15:42:54;17.00;;;11.55;;
20431;SDS011;10375;49.136;10.366;2022-10-31T15:45:29;27.42;;;11.45;;
20431;SDS011;10375;49.136;10.366;2022-10-31T15:48:01;18.10;;;12.13;;
20431;SDS011;10375;49.136;10.366;2022-10-31T15:53:04;39.70;;;13.55;;
20431;SDS011;10375;49.136;10.366;2022-10-31T15:55:38;105.68;;;19.58;;
20431;SDS011;10375;49.136;10.366;2022-10-31T15:58:22;38.72;;;13.90;;
20431;SDS011;10375;49.136;10.366;2022-10-31T16:01:00;36.97;;;13.07;;
20431;SDS011;10375;49.136;10.366;2022-10-31T16:03:32;21.63;;;13.23;;
20431;SDS011;10375;49.136;10.366;2022-10-31T16:06:04;38.83;;;12.23;;
20431;SDS011;10375;49.136;10.366;2022-10-31T16:08:33;297.85;;;40.25;;
20431;SDS011;10375;49.136;10.366;2022-10-31T16:11:13;32.67;;;11.07;;
20431;SDS011;10375;49.136;10.366;2022-10-31T16:16:39;60.33;;;11.52;;
20431;SDS011;10375;49.136;10.366;2022-10-31T16:19:16;39.03;;;10.82;;
20431;SDS011;10375;49.136;10.366;2022-10-31T16:22:09;64.45;;;12.68;;
20431;SDS011;10375;49.136;10.366;2022-10-31T16:24:49;21.17;;;11.18;;
20431;SDS011;10375;49.136;10.366;2022-10-31T16:27:20;14.80;;;11.02;;
20431;SDS011;10375;49.136;10.366;2022-10-31T16:29:52;18.08;;;12.38;;
20431;SDS011;10375;49.136;10.366;2022-10-31T16:37:39;29.70;;;12.25;;
20431;SDS011;10375;49.136;10.366;2022-10-31T16:40:07;46.45;;;13.98;;
20431;SDS011;10375;49.136;10.366;2022-10-31T16:42:41;20.88;;;12.05;;
20431;SDS011;10375;49.136;10.366;2022-10-31T16:45:17;18.30;;;11.48;;
20431;SDS011;10375;49.136;10.366;2022-10-31T16:47:49;26.10;;;11.38;;
20431;SDS011;10375;49.136;10.366;2022-10-31T16:50:24;29.52;;;12.25;;
20431;SDS011;10375;49.136;10.366;2022-10-31T16:52:53;16.13;;;11.35;;
20431;SDS011;10375;49.136;10.366;2022-10-31T16:58:30;21.58;;;13.48;;
20431;SDS011;10375;49.136;10.366;2022-10-31T17:01:03;17.80;;;11.88;;
20431;SDS011;10375;49.136;10.366;2022-10-31T17:03:32;22.40;;;11.93;;
20431;SDS011;10375;49.136;10.366;2022-10-31T17:05:59;27.83;;;13.30;;
20431;SDS011;10375;49.136;10.366;2022-10-31T17:08:26;19.50;;;12.68;;
20431;SDS011;10375;49.136;10.366;2022-10-31T17:10:54;33.92;;;14.98;;
20431;SDS011;10375;49.136;10.366;2022-10-31T17:13:23;30.92;;;13.13;;
20431;SDS011;10375;49.136;10.366;2022-10-31T17:15:57;21.27;;;12.85;;
20431;SDS011;10375;49.136;10.366;2022-10-31T17:18:25;15.98;;;12.10;;
20431;SDS011;10375;49.136;10.366;2022-10-31T17:20:57;18.90;;;11.52;;
20431;SDS011;10375;49.136;10.366;2022-10-31T17:23:26;18.20;;;11.70;;
20431;SDS011;10375;49.136;10.366;2022-10-31T17:25:54;19.40;;;12.27;;
20431;SDS011;10375;49.136;10.366;2022-10-31T17:28:21;17.73;;;12.00;;
20431;SDS011;10375;49.136;10.366;2022-10-31T17:30:50;20.08;;;13.02;;
20431;SDS011;10375;49.136;10.366;2022-10-31T17:33:19;20.08;;;13.20;;
20431;SDS011;10375;49.136;10.366;2022-10-31T17:35:46;22.77;;;14.25;;
20431;SDS011;10375;49.136;10.366;2022-10-31T17:38:13;28.13;;;14.63;;
20431;SDS011;10375;49.136;10.366;2022-10-31T17:40:40;21.10;;;15.30;;
20431;SDS011;10375;49.136;10.366;2022-10-31T17:43:10;22.40;;;15.82;;
20431;SDS011;10375;49.136;10.366;2022-10-31T17:45:38;24.55;;;15.80;;